sensor_id;sensor_type;location;lat;lon;timestamp;temperature;humidity
76878;DHT22;65843;50.692;12.844;2023-05-07T00:00:58;22.20;49.30
76878;DHT22;65843;50.692;12.844;2023-05-07T00:02:00;22.20;49.30
76878;DHT22;65843;50.692;12.844;2023-05-07T00:03:01;22.20;49.30
76878;DHT22;65843;50.692;12.844;2023-05-07T00:04:02;22.20;49.40
76878;DHT22;65843;50.692;12.844;2023-05-07T00:05:03;22.20;49.40
76878;DHT22;65843;50.692;12.844;2023-05-07T00:06:04;22.20;49.30
76878;DHT22;65843;50.692;12.844;2023-05-07T00:07:05;22.20;49.30
76878;DHT22;65843;50.692;12.844;2023-05-07T00:08:06;22.20;49.30
76878;DHT22;65843;50.692;12.844;2023-05-07T00:09:07;22.20;49.30
76878;DHT22;65843;50.692;12.844;2023-05-07T00:10:08;22.20;49.30
76878;DHT22;65843;50.692;12.844;2023-05-07T00:11:09;22.20;49.30
76878;DHT22;65843;50.692;12.844;2023-05-07T00:12:10;22.20;49.30
76878;DHT22;65843;50.692;12.844;2023-05-07T00:13:11;22.20;49.30
76878;DHT22;65843;50.692;12.844;2023-05-07T00:14:11;22.20;49.30
76878;DHT22;65843;50.692;12.844;2023-05-07T00:15:12;22.20;49.20
76878;DHT22;65843;50.692;12.844;2023-05-07T00:16:13;22.20;49.30
76878;DHT22;65843;50.692;12.844;2023-05-07T00:17:14;22.20;49.30
76878;DHT22;65843;50.692;12.844;2023-05-07T00:18:15;22.20;49.30
76878;DHT22;65843;50.692;12.844;2023-05-07T00:19:16;22.20;49.20
76878;DHT22;65843;50.692;12.844;2023-05-07T00:20:17;22.20;49.20
76878;DHT22;65843;50.692;12.844;2023-05-07T00:21:18;22.20;49.30
76878;DHT22;65843;50.692;12.844;2023-05-07T00:22:19;22.20;49.30
76878;DHT22;65843;50.692;12.844;2023-05-07T00:23:19;22.20;49.20
76878;DHT22;65843;50.692;12.844;2023-05-07T00:24:20;22.20;49.20
76878;DHT22;65843;50.692;12.844;2023-05-07T00:25:21;22.20;49.30
76878;DHT22;65843;50.692;12.844;2023-05-07T00:26:22;22.20;49.20
76878;DHT22;65843;50.692;12.844;2023-05-07T00:27:23;22.20;49.20
76878;DHT22;65843;50.692;12.844;2023-05-07T00:28:24;22.20;49.20
76878;DHT22;65843;50.692;12.844;2023-05-07T00:29:25;22.20;49.20
76878;DHT22;65843;50.692;12.844;2023-05-07T00:30:25;22.20;49.20
76878;DHT22;65843;50.692;12.844;2023-05-07T00:31:26;22.20;49.10
76878;DHT22;65843;50.692;12.844;2023-05-07T00:32:27;22.20;49.10
76878;DHT22;65843;50.692;12.844;2023-05-07T00:33:28;22.20;49.10
76878;DHT22;65843;50.692;12.844;2023-05-07T00:34:29;22.20;49.10
76878;DHT22;65843;50.692;12.844;2023-05-07T00:35:30;22.20;49.20
76878;DHT22;65843;50.692;12.844;2023-05-07T00:36:31;22.20;49.20
76878;DHT22;65843;50.692;12.844;2023-05-07T00:37:32;22.20;49.10
76878;DHT22;65843;50.692;12.844;2023-05-07T00:38:32;22.20;49.10
76878;DHT22;65843;50.692;12.844;2023-05-07T00:39:33;22.20;49.10
76878;DHT22;65843;50.692;12.844;2023-05-07T00:40:34;22.20;49.10
76878;DHT22;65843;50.692;12.844;2023-05-07T00:41:35;22.20;49.10
76878;DHT22;65843;50.692;12.844;2023-05-07T00:42:36;22.20;49.10
76878;DHT22;65843;50.692;12.844;2023-05-07T00:43:37;22.20;49.10
76878;DHT22;65843;50.692;12.844;2023-05-07T00:44:38;22.20;49.10
76878;DHT22;65843;50.692;12.844;2023-05-07T00:45:39;22.20;49.10
76878;DHT22;65843;50.692;12.844;2023-05-07T00:46:40;22.20;49.10
76878;DHT22;65843;50.692;12.844;2023-05-07T00:47:41;22.20;49.10
76878;DHT22;65843;50.692;12.844;2023-05-07T00:48:42;22.20;49.20
76878;DHT22;65843;50.692;12.844;2023-05-07T00:49:44;22.20;49.10
76878;DHT22;65843;50.692;12.844;2023-05-07T00:50:45;22.20;49.10
76878;DHT22;65843;50.692;12.844;2023-05-07T00:51:46;22.20;49.10
76878;DHT22;65843;50.692;12.844;2023-05-07T00:52:47;22.20;49.10
76878;DHT22;65843;50.692;12.844;2023-05-07T00:53:48;22.20;49.00
76878;DHT22;65843;50.692;12.844;2023-05-07T00:54:49;22.20;49.10
76878;DHT22;65843;50.692;12.844;2023-05-07T00:55:50;22.20;49.10
76878;DHT22;65843;50.692;12.844;2023-05-07T00:56:51;22.20;49.00
76878;DHT22;65843;50.692;12.844;2023-05-07T00:57:52;22.20;49.00
76878;DHT22;65843;50.692;12.844;2023-05-07T00:58:53;22.20;48.90
76878;DHT22;65843;50.692;12.844;2023-05-07T00:59:54;22.20;49.00
76878;DHT22;65843;50.692;12.844;2023-05-07T01:00:55;22.20;49.00
76878;DHT22;65843;50.692;12.844;2023-05-07T01:01:56;22.20;49.00
76878;DHT22;65843;50.692;12.844;2023-05-07T01:02:57;22.20;49.00
76878;DHT22;65843;50.692;12.844;2023-05-07T01:03:58;22.20;48.90
76878;DHT22;65843;50.692;12.844;2023-05-07T01:04:59;22.20;49.00
76878;DHT22;65843;50.692;12.844;2023-05-07T01:06:00;22.20;48.90
76878;DHT22;65843;50.692;12.844;2023-05-07T01:07:02;22.20;49.00
76878;DHT22;65843;50.692;12.844;2023-05-07T01:08:03;22.20;48.90
76878;DHT22;65843;50.692;12.844;2023-05-07T01:09:04;22.20;49.00
76878;DHT22;65843;50.692;12.844;2023-05-07T01:10:05;22.20;49.00
76878;DHT22;65843;50.692;12.844;2023-05-07T01:11:07;22.20;49.00
76878;DHT22;65843;50.692;12.844;2023-05-07T01:12:08;22.20;48.90
76878;DHT22;65843;50.692;12.844;2023-05-07T01:13:10;22.20;49.00
76878;DHT22;65843;50.692;12.844;2023-05-07T01:14:11;22.20;48.90
76878;DHT22;65843;50.692;12.844;2023-05-07T01:15:12;22.20;48.90
76878;DHT22;65843;50.692;12.844;2023-05-07T01:16:13;22.20;48.90
76878;DHT22;65843;50.692;12.844;2023-05-07T01:17:14;22.20;48.90
76878;DHT22;65843;50.692;12.844;2023-05-07T01:18:15;22.20;48.90
76878;DHT22;65843;50.692;12.844;2023-05-07T01:19:19;22.20;48.90
76878;DHT22;65843;50.692;12.844;2023-05-07T01:20:20;22.20;48.90
76878;DHT22;65843;50.692;12.844;2023-05-07T01:21:23;22.20;48.90
76878;DHT22;65843;50.692;12.844;2023-05-07T01:22:32;22.20;48.90
76878;DHT22;65843;50.692;12.844;2023-05-07T01:23:33;22.20;48.80
76878;DHT22;65843;50.692;12.844;2023-05-07T01:24:36;22.20;48.90
76878;DHT22;65843;50.692;12.844;2023-05-07T01:25:37;22.20;48.90
76878;DHT22;65843;50.692;12.844;2023-05-07T01:26:38;22.20;48.90
76878;DHT22;65843;50.692;12.844;2023-05-07T01:27:40;22.20;48.80
76878;DHT22;65843;50.692;12.844;2023-05-07T01:28:41;22.20;48.80
76878;DHT22;65843;50.692;12.844;2023-05-07T01:29:42;22.20;48.80
76878;DHT22;65843;50.692;12.844;2023-05-07T01:30:44;22.20;48.80
76878;DHT22;65843;50.692;12.844;2023-05-07T01:31:46;22.20;48.80
76878;DHT22;65843;50.692;12.844;2023-05-07T01:32:49;22.20;48.70
76878;DHT22;65843;50.692;12.844;2023-05-07T01:33:51;22.20;48.80
76878;DHT22;65843;50.692;12.844;2023-05-07T01:34:52;22.20;48.70
76878;DHT22;65843;50.692;12.844;2023-05-07T01:35:54;22.10;48.80
76878;DHT22;65843;50.692;12.844;2023-05-07T01:36:55;22.10;48.80
76878;DHT22;65843;50.692;12.844;2023-05-07T01:37:58;22.20;48.80
76878;DHT22;65843;50.692;12.844;2023-05-07T01:38:59;22.20;48.70
76878;DHT22;65843;50.692;12.844;2023-05-07T01:40:00;22.20;48.70
76878;DHT22;65843;50.692;12.844;2023-05-07T01:41:02;22.10;48.80
76878;DHT22;65843;50.692;12.844;2023-05-07T01:42:03;22.10;48.70
76878;DHT22;65843;50.692;12.844;2023-05-07T01:43:04;22.10;48.70
76878;DHT22;65843;50.692;12.844;2023-05-07T01:44:05;22.10;48.70
76878;DHT22;65843;50.692;12.844;2023-05-07T01:45:06;22.10;48.70
76878;DHT22;65843;50.692;12.844;2023-05-07T01:46:08;22.10;48.70
76878;DHT22;65843;50.692;12.844;2023-05-07T01:47:10;22.10;48.70
76878;DHT22;65843;50.692;12.844;2023-05-07T01:48:12;22.10;48.60
76878;DHT22;65843;50.692;12.844;2023-05-07T01:49:14;22.10;48.70
76878;DHT22;65843;50.692;12.844;2023-05-07T01:50:16;22.10;48.70
76878;DHT22;65843;50.692;12.844;2023-05-07T01:51:17;22.10;48.60
76878;DHT22;65843;50.692;12.844;2023-05-07T01:52:20;22.10;48.60
76878;DHT22;65843;50.692;12.844;2023-05-07T01:53:21;22.10;48.50
76878;DHT22;65843;50.692;12.844;2023-05-07T01:54:25;22.10;48.50
76878;DHT22;65843;50.692;12.844;2023-05-07T01:55:28;22.10;48.60
76878;DHT22;65843;50.692;12.844;2023-05-07T01:56:29;22.10;48.50
76878;DHT22;65843;50.692;12.844;2023-05-07T01:57:30;22.10;48.50
76878;DHT22;65843;50.692;12.844;2023-05-07T01:58:31;22.10;48.50
76878;DHT22;65843;50.692;12.844;2023-05-07T01:59:31;22.10;48.50
76878;DHT22;65843;50.692;12.844;2023-05-07T02:00:32;22.10;48.40
76878;DHT22;65843;50.692;12.844;2023-05-07T02:01:33;22.10;48.40
76878;DHT22;65843;50.692;12.844;2023-05-07T02:02:34;22.10;48.40
76878;DHT22;65843;50.692;12.844;2023-05-07T02:03:35;22.10;48.40
76878;DHT22;65843;50.692;12.844;2023-05-07T02:04:36;22.10;48.40
76878;DHT22;65843;50.692;12.844;2023-05-07T02:05:37;22.10;48.40
76878;DHT22;65843;50.692;12.844;2023-05-07T02:06:38;22.10;48.50
76878;DHT22;65843;50.692;12.844;2023-05-07T02:07:39;22.10;48.50
76878;DHT22;65843;50.692;12.844;2023-05-07T02:08:40;22.10;48.40
76878;DHT22;65843;50.692;12.844;2023-05-07T02:09:41;22.10;48.40
76878;DHT22;65843;50.692;12.844;2023-05-07T02:10:41;22.10;48.50
76878;DHT22;65843;50.692;12.844;2023-05-07T02:11:42;22.10;48.40
76878;DHT22;65843;50.692;12.844;2023-05-07T02:12:43;22.10;48.50
76878;DHT22;65843;50.692;12.844;2023-05-07T02:13:44;22.10;48.50
76878;DHT22;65843;50.692;12.844;2023-05-07T02:14:45;22.10;48.50
76878;DHT22;65843;50.692;12.844;2023-05-07T02:15:46;22.10;48.50
76878;DHT22;65843;50.692;12.844;2023-05-07T02:16:50;22.10;48.50
76878;DHT22;65843;50.692;12.844;2023-05-07T02:18:05;22.10;48.50
76878;DHT22;65843;50.692;12.844;2023-05-07T02:19:06;22.10;48.50
76878;DHT22;65843;50.692;12.844;2023-05-07T02:20:07;22.10;48.40
76878;DHT22;65843;50.692;12.844;2023-05-07T02:21:13;22.10;48.50
76878;DHT22;65843;50.692;12.844;2023-05-07T02:22:14;22.10;48.40
76878;DHT22;65843;50.692;12.844;2023-05-07T02:23:16;22.10;48.40
76878;DHT22;65843;50.692;12.844;2023-05-07T02:24:16;22.10;48.30
76878;DHT22;65843;50.692;12.844;2023-05-07T02:25:17;22.10;48.30
76878;DHT22;65843;50.692;12.844;2023-05-07T02:26:18;22.10;48.30
76878;DHT22;65843;50.692;12.844;2023-05-07T02:27:19;22.10;48.20
76878;DHT22;65843;50.692;12.844;2023-05-07T02:28:20;22.10;48.20
76878;DHT22;65843;50.692;12.844;2023-05-07T02:29:21;22.10;48.20
76878;DHT22;65843;50.692;12.844;2023-05-07T02:30:21;22.10;48.20
76878;DHT22;65843;50.692;12.844;2023-05-07T02:31:22;22.10;48.20
76878;DHT22;65843;50.692;12.844;2023-05-07T02:32:23;22.10;48.20
76878;DHT22;65843;50.692;12.844;2023-05-07T02:33:24;22.10;48.20
76878;DHT22;65843;50.692;12.844;2023-05-07T02:34:25;22.10;48.20
76878;DHT22;65843;50.692;12.844;2023-05-07T02:35:26;22.10;48.10
76878;DHT22;65843;50.692;12.844;2023-05-07T02:36:27;22.10;48.00
76878;DHT22;65843;50.692;12.844;2023-05-07T02:37:28;22.10;48.00
76878;DHT22;65843;50.692;12.844;2023-05-07T02:38:29;22.10;48.00
76878;DHT22;65843;50.692;12.844;2023-05-07T02:39:29;22.10;48.10
76878;DHT22;65843;50.692;12.844;2023-05-07T02:40:30;22.00;48.10
76878;DHT22;65843;50.692;12.844;2023-05-07T02:41:34;22.10;48.20
76878;DHT22;65843;50.692;12.844;2023-05-07T02:42:35;22.10;48.10
76878;DHT22;65843;50.692;12.844;2023-05-07T02:43:36;22.00;48.10
76878;DHT22;65843;50.692;12.844;2023-05-07T02:44:37;22.10;48.00
76878;DHT22;65843;50.692;12.844;2023-05-07T02:45:37;22.10;48.10
76878;DHT22;65843;50.692;12.844;2023-05-07T02:46:38;22.10;48.00
76878;DHT22;65843;50.692;12.844;2023-05-07T02:47:39;22.10;48.10
76878;DHT22;65843;50.692;12.844;2023-05-07T02:48:40;22.10;48.10
76878;DHT22;65843;50.692;12.844;2023-05-07T02:49:41;22.10;48.00
76878;DHT22;65843;50.692;12.844;2023-05-07T02:50:42;22.10;48.10
76878;DHT22;65843;50.692;12.844;2023-05-07T02:51:43;22.00;48.10
76878;DHT22;65843;50.692;12.844;2023-05-07T02:52:44;22.10;48.10
76878;DHT22;65843;50.692;12.844;2023-05-07T02:53:44;22.10;48.10
76878;DHT22;65843;50.692;12.844;2023-05-07T02:54:46;22.10;48.10
76878;DHT22;65843;50.692;12.844;2023-05-07T02:55:47;22.10;48.10
76878;DHT22;65843;50.692;12.844;2023-05-07T02:56:48;22.10;48.10
76878;DHT22;65843;50.692;12.844;2023-05-07T02:57:49;22.10;48.00
76878;DHT22;65843;50.692;12.844;2023-05-07T02:58:49;22.00;48.00
76878;DHT22;65843;50.692;12.844;2023-05-07T02:59:50;22.10;48.00
76878;DHT22;65843;50.692;12.844;2023-05-07T03:00:52;22.10;48.00
76878;DHT22;65843;50.692;12.844;2023-05-07T03:01:53;22.10;48.00
76878;DHT22;65843;50.692;12.844;2023-05-07T03:02:53;22.00;48.00
76878;DHT22;65843;50.692;12.844;2023-05-07T03:03:55;22.00;48.00
76878;DHT22;65843;50.692;12.844;2023-05-07T03:04:56;22.00;48.00
76878;DHT22;65843;50.692;12.844;2023-05-07T03:05:56;22.00;48.00
76878;DHT22;65843;50.692;12.844;2023-05-07T03:06:57;22.00;47.90
76878;DHT22;65843;50.692;12.844;2023-05-07T03:07:58;22.00;47.90
76878;DHT22;65843;50.692;12.844;2023-05-07T03:08:59;22.00;47.80
76878;DHT22;65843;50.692;12.844;2023-05-07T03:10:00;22.00;47.80
76878;DHT22;65843;50.692;12.844;2023-05-07T03:11:01;22.00;47.80
76878;DHT22;65843;50.692;12.844;2023-05-07T03:12:02;22.00;47.90
76878;DHT22;65843;50.692;12.844;2023-05-07T03:13:03;22.00;47.90
76878;DHT22;65843;50.692;12.844;2023-05-07T03:14:03;22.00;47.90
76878;DHT22;65843;50.692;12.844;2023-05-07T03:15:05;22.00;47.80
76878;DHT22;65843;50.692;12.844;2023-05-07T03:16:06;22.00;47.80
76878;DHT22;65843;50.692;12.844;2023-05-07T03:17:07;22.00;47.80
76878;DHT22;65843;50.692;12.844;2023-05-07T03:18:07;22.00;47.80
76878;DHT22;65843;50.692;12.844;2023-05-07T03:19:08;22.00;47.70
76878;DHT22;65843;50.692;12.844;2023-05-07T03:20:09;22.00;47.70
76878;DHT22;65843;50.692;12.844;2023-05-07T03:21:11;22.00;47.70
76878;DHT22;65843;50.692;12.844;2023-05-07T03:22:12;22.00;47.80
76878;DHT22;65843;50.692;12.844;2023-05-07T03:23:13;22.00;47.80
76878;DHT22;65843;50.692;12.844;2023-05-07T03:24:14;22.00;47.80
76878;DHT22;65843;50.692;12.844;2023-05-07T03:25:14;22.00;47.80
76878;DHT22;65843;50.692;12.844;2023-05-07T03:26:15;22.00;47.80
76878;DHT22;65843;50.692;12.844;2023-05-07T03:27:16;22.00;47.80
76878;DHT22;65843;50.692;12.844;2023-05-07T03:28:17;22.00;47.70
76878;DHT22;65843;50.692;12.844;2023-05-07T03:29:18;22.00;47.80
76878;DHT22;65843;50.692;12.844;2023-05-07T03:30:19;22.00;47.80
76878;DHT22;65843;50.692;12.844;2023-05-07T03:31:20;22.00;47.70
76878;DHT22;65843;50.692;12.844;2023-05-07T03:32:21;22.00;47.70
76878;DHT22;65843;50.692;12.844;2023-05-07T03:33:22;22.00;47.60
76878;DHT22;65843;50.692;12.844;2023-05-07T03:34:23;22.00;47.70
76878;DHT22;65843;50.692;12.844;2023-05-07T03:35:24;22.00;47.70
76878;DHT22;65843;50.692;12.844;2023-05-07T03:36:25;22.00;47.70
76878;DHT22;65843;50.692;12.844;2023-05-07T03:37:28;22.00;47.70
76878;DHT22;65843;50.692;12.844;2023-05-07T03:38:30;22.00;47.70
76878;DHT22;65843;50.692;12.844;2023-05-07T03:39:30;22.00;47.70
76878;DHT22;65843;50.692;12.844;2023-05-07T03:40:32;22.00;47.70
76878;DHT22;65843;50.692;12.844;2023-05-07T03:41:33;22.00;47.70
76878;DHT22;65843;50.692;12.844;2023-05-07T03:42:34;22.00;47.60
76878;DHT22;65843;50.692;12.844;2023-05-07T03:43:35;22.00;47.60
76878;DHT22;65843;50.692;12.844;2023-05-07T03:44:36;22.00;47.70
76878;DHT22;65843;50.692;12.844;2023-05-07T03:45:36;22.00;47.60
76878;DHT22;65843;50.692;12.844;2023-05-07T03:46:37;22.00;47.60
76878;DHT22;65843;50.692;12.844;2023-05-07T03:47:38;22.00;47.60
76878;DHT22;65843;50.692;12.844;2023-05-07T03:48:39;22.00;47.60
76878;DHT22;65843;50.692;12.844;2023-05-07T03:49:40;22.00;47.60
76878;DHT22;65843;50.692;12.844;2023-05-07T03:50:41;22.00;47.60
76878;DHT22;65843;50.692;12.844;2023-05-07T03:51:42;22.00;47.60
76878;DHT22;65843;50.692;12.844;2023-05-07T03:52:43;22.00;47.50
76878;DHT22;65843;50.692;12.844;2023-05-07T03:53:44;22.00;47.60
76878;DHT22;65843;50.692;12.844;2023-05-07T03:54:45;22.00;47.60
76878;DHT22;65843;50.692;12.844;2023-05-07T03:55:46;22.00;47.50
76878;DHT22;65843;50.692;12.844;2023-05-07T03:56:46;21.90;47.60
76878;DHT22;65843;50.692;12.844;2023-05-07T03:57:47;21.90;47.60
76878;DHT22;65843;50.692;12.844;2023-05-07T03:58:48;21.90;47.50
76878;DHT22;65843;50.692;12.844;2023-05-07T03:59:49;21.90;47.60
76878;DHT22;65843;50.692;12.844;2023-05-07T04:00:50;21.90;47.60
76878;DHT22;65843;50.692;12.844;2023-05-07T04:01:51;21.90;47.60
76878;DHT22;65843;50.692;12.844;2023-05-07T04:02:52;21.90;47.70
76878;DHT22;65843;50.692;12.844;2023-05-07T04:03:52;21.90;47.60
76878;DHT22;65843;50.692;12.844;2023-05-07T04:04:53;21.90;47.60
76878;DHT22;65843;50.692;12.844;2023-05-07T04:05:54;21.90;47.50
76878;DHT22;65843;50.692;12.844;2023-05-07T04:06:55;21.90;47.60
76878;DHT22;65843;50.692;12.844;2023-05-07T04:07:59;21.90;47.50
76878;DHT22;65843;50.692;12.844;2023-05-07T04:09:01;21.90;47.50
76878;DHT22;65843;50.692;12.844;2023-05-07T04:10:01;21.90;47.50
76878;DHT22;65843;50.692;12.844;2023-05-07T04:11:02;21.90;47.40
76878;DHT22;65843;50.692;12.844;2023-05-07T04:12:03;21.90;47.50
76878;DHT22;65843;50.692;12.844;2023-05-07T04:13:04;21.90;47.50
76878;DHT22;65843;50.692;12.844;2023-05-07T04:14:05;21.90;47.40
76878;DHT22;65843;50.692;12.844;2023-05-07T04:15:06;21.90;47.50
76878;DHT22;65843;50.692;12.844;2023-05-07T04:16:07;21.90;47.50
76878;DHT22;65843;50.692;12.844;2023-05-07T04:17:08;21.90;47.50
76878;DHT22;65843;50.692;12.844;2023-05-07T04:18:11;21.90;47.40
76878;DHT22;65843;50.692;12.844;2023-05-07T04:19:12;21.90;47.40
76878;DHT22;65843;50.692;12.844;2023-05-07T04:20:14;21.90;47.40
76878;DHT22;65843;50.692;12.844;2023-05-07T04:21:16;21.90;47.40
76878;DHT22;65843;50.692;12.844;2023-05-07T04:22:17;21.90;47.50
76878;DHT22;65843;50.692;12.844;2023-05-07T04:23:18;21.90;47.50
76878;DHT22;65843;50.692;12.844;2023-05-07T04:24:19;21.90;47.60
76878;DHT22;65843;50.692;12.844;2023-05-07T04:25:20;21.90;47.60
76878;DHT22;65843;50.692;12.844;2023-05-07T04:26:21;21.90;47.60
76878;DHT22;65843;50.692;12.844;2023-05-07T04:27:22;21.90;47.60
76878;DHT22;65843;50.692;12.844;2023-05-07T04:28:23;21.90;47.70
76878;DHT22;65843;50.692;12.844;2023-05-07T04:29:24;21.90;47.60
76878;DHT22;65843;50.692;12.844;2023-05-07T04:30:25;21.90;47.60
76878;DHT22;65843;50.692;12.844;2023-05-07T04:31:26;21.90;47.50
76878;DHT22;65843;50.692;12.844;2023-05-07T04:32:27;21.90;47.50
76878;DHT22;65843;50.692;12.844;2023-05-07T04:33:29;21.90;47.50
76878;DHT22;65843;50.692;12.844;2023-05-07T04:34:30;22.00;47.50
76878;DHT22;65843;50.692;12.844;2023-05-07T04:35:31;22.00;47.50
76878;DHT22;65843;50.692;12.844;2023-05-07T04:36:32;21.90;47.40
76878;DHT22;65843;50.692;12.844;2023-05-07T04:37:34;22.00;47.30
76878;DHT22;65843;50.692;12.844;2023-05-07T04:38:35;22.00;47.40
76878;DHT22;65843;50.692;12.844;2023-05-07T04:39:36;21.90;47.30
76878;DHT22;65843;50.692;12.844;2023-05-07T04:40:38;22.00;47.20
76878;DHT22;65843;50.692;12.844;2023-05-07T04:41:39;21.90;47.20
76878;DHT22;65843;50.692;12.844;2023-05-07T04:42:40;21.90;47.20
76878;DHT22;65843;50.692;12.844;2023-05-07T04:43:41;21.90;47.10
76878;DHT22;65843;50.692;12.844;2023-05-07T04:44:44;21.90;47.10
76878;DHT22;65843;50.692;12.844;2023-05-07T04:45:45;21.90;47.20
76878;DHT22;65843;50.692;12.844;2023-05-07T04:46:46;21.90;47.10
76878;DHT22;65843;50.692;12.844;2023-05-07T04:47:47;21.90;47.10
76878;DHT22;65843;50.692;12.844;2023-05-07T04:48:48;21.90;47.10
76878;DHT22;65843;50.692;12.844;2023-05-07T04:49:48;21.90;47.10
76878;DHT22;65843;50.692;12.844;2023-05-07T04:50:49;21.90;47.00
76878;DHT22;65843;50.692;12.844;2023-05-07T04:51:50;21.90;47.00
76878;DHT22;65843;50.692;12.844;2023-05-07T04:52:51;21.90;47.00
76878;DHT22;65843;50.692;12.844;2023-05-07T04:53:52;21.90;46.90
76878;DHT22;65843;50.692;12.844;2023-05-07T04:54:53;21.90;46.90
76878;DHT22;65843;50.692;12.844;2023-05-07T04:55:55;21.90;46.80
76878;DHT22;65843;50.692;12.844;2023-05-07T04:56:56;21.80;46.90
76878;DHT22;65843;50.692;12.844;2023-05-07T04:57:57;21.80;46.80
76878;DHT22;65843;50.692;12.844;2023-05-07T04:58:58;21.80;46.90
76878;DHT22;65843;50.692;12.844;2023-05-07T04:59:59;21.80;46.80
76878;DHT22;65843;50.692;12.844;2023-05-07T05:00:59;21.80;46.80
76878;DHT22;65843;50.692;12.844;2023-05-07T05:02:00;21.80;46.70
76878;DHT22;65843;50.692;12.844;2023-05-07T05:03:01;21.80;46.80
76878;DHT22;65843;50.692;12.844;2023-05-07T05:04:02;21.80;46.70
76878;DHT22;65843;50.692;12.844;2023-05-07T05:05:03;21.70;46.70
76878;DHT22;65843;50.692;12.844;2023-05-07T05:06:04;21.70;46.70
76878;DHT22;65843;50.692;12.844;2023-05-07T05:07:06;21.70;46.70
76878;DHT22;65843;50.692;12.844;2023-05-07T05:08:06;21.70;46.70
76878;DHT22;65843;50.692;12.844;2023-05-07T05:09:07;21.70;46.60
76878;DHT22;65843;50.692;12.844;2023-05-07T05:10:08;21.70;46.70
76878;DHT22;65843;50.692;12.844;2023-05-07T05:11:09;21.70;46.60
76878;DHT22;65843;50.692;12.844;2023-05-07T05:12:10;21.70;46.60
76878;DHT22;65843;50.692;12.844;2023-05-07T05:13:11;21.70;46.60
76878;DHT22;65843;50.692;12.844;2023-05-07T05:14:13;21.70;46.60
76878;DHT22;65843;50.692;12.844;2023-05-07T05:15:14;21.70;46.60
76878;DHT22;65843;50.692;12.844;2023-05-07T05:16:15;21.70;46.60
76878;DHT22;65843;50.692;12.844;2023-05-07T05:17:16;21.70;46.60
76878;DHT22;65843;50.692;12.844;2023-05-07T05:18:17;21.70;46.60
76878;DHT22;65843;50.692;12.844;2023-05-07T05:19:18;21.70;46.60
76878;DHT22;65843;50.692;12.844;2023-05-07T05:20:19;21.70;46.60
76878;DHT22;65843;50.692;12.844;2023-05-07T05:21:20;21.70;46.60
76878;DHT22;65843;50.692;12.844;2023-05-07T05:22:21;21.70;46.50
76878;DHT22;65843;50.692;12.844;2023-05-07T05:23:21;21.70;46.60
76878;DHT22;65843;50.692;12.844;2023-05-07T05:24:22;21.70;46.50
76878;DHT22;65843;50.692;12.844;2023-05-07T05:25:23;21.70;46.60
76878;DHT22;65843;50.692;12.844;2023-05-07T05:26:24;21.70;46.50
76878;DHT22;65843;50.692;12.844;2023-05-07T05:27:25;21.70;46.70
76878;DHT22;65843;50.692;12.844;2023-05-07T05:28:26;21.70;46.90
76878;DHT22;65843;50.692;12.844;2023-05-07T05:29:28;21.70;47.00
76878;DHT22;65843;50.692;12.844;2023-05-07T05:30:29;21.70;47.10
76878;DHT22;65843;50.692;12.844;2023-05-07T05:31:29;21.80;47.10
76878;DHT22;65843;50.692;12.844;2023-05-07T05:32:30;21.80;47.10
76878;DHT22;65843;50.692;12.844;2023-05-07T05:33:31;21.90;47.10
76878;DHT22;65843;50.692;12.844;2023-05-07T05:34:32;21.90;47.20
76878;DHT22;65843;50.692;12.844;2023-05-07T05:35:33;21.90;47.20
76878;DHT22;65843;50.692;12.844;2023-05-07T05:36:36;21.90;47.20
76878;DHT22;65843;50.692;12.844;2023-05-07T05:37:36;22.00;47.20
76878;DHT22;65843;50.692;12.844;2023-05-07T05:38:37;22.00;47.20
76878;DHT22;65843;50.692;12.844;2023-05-07T05:39:38;22.00;47.20
76878;DHT22;65843;50.692;12.844;2023-05-07T05:40:39;22.00;47.30
76878;DHT22;65843;50.692;12.844;2023-05-07T05:41:40;22.00;47.30
76878;DHT22;65843;50.692;12.844;2023-05-07T05:42:41;22.10;47.30
76878;DHT22;65843;50.692;12.844;2023-05-07T05:43:42;22.10;47.30
76878;DHT22;65843;50.692;12.844;2023-05-07T05:44:42;22.10;47.30
76878;DHT22;65843;50.692;12.844;2023-05-07T05:45:43;22.20;47.30
76878;DHT22;65843;50.692;12.844;2023-05-07T05:46:44;22.20;47.30
76878;DHT22;65843;50.692;12.844;2023-05-07T05:47:45;22.20;47.30
76878;DHT22;65843;50.692;12.844;2023-05-07T05:48:46;22.20;47.30
76878;DHT22;65843;50.692;12.844;2023-05-07T05:49:47;22.20;47.20
76878;DHT22;65843;50.692;12.844;2023-05-07T05:50:48;22.20;47.30
76878;DHT22;65843;50.692;12.844;2023-05-07T05:51:49;22.20;47.30
76878;DHT22;65843;50.692;12.844;2023-05-07T05:52:50;22.30;47.30
76878;DHT22;65843;50.692;12.844;2023-05-07T05:53:51;22.30;47.20
76878;DHT22;65843;50.692;12.844;2023-05-07T05:54:53;22.30;47.30
76878;DHT22;65843;50.692;12.844;2023-05-07T05:55:53;22.30;47.20
76878;DHT22;65843;50.692;12.844;2023-05-07T05:56:54;22.30;47.10
76878;DHT22;65843;50.692;12.844;2023-05-07T05:57:56;22.20;47.20
76878;DHT22;65843;50.692;12.844;2023-05-07T05:58:57;22.20;47.20
76878;DHT22;65843;50.692;12.844;2023-05-07T05:59:58;22.20;47.20
76878;DHT22;65843;50.692;12.844;2023-05-07T06:00:59;22.20;47.20
76878;DHT22;65843;50.692;12.844;2023-05-07T06:01:59;22.20;47.20
76878;DHT22;65843;50.692;12.844;2023-05-07T06:03:00;22.20;47.20
76878;DHT22;65843;50.692;12.844;2023-05-07T06:04:01;22.20;47.20
76878;DHT22;65843;50.692;12.844;2023-05-07T06:05:02;22.20;47.10
76878;DHT22;65843;50.692;12.844;2023-05-07T06:06:03;22.20;47.10
76878;DHT22;65843;50.692;12.844;2023-05-07T06:07:04;22.20;47.10
76878;DHT22;65843;50.692;12.844;2023-05-07T06:08:05;22.20;47.10
76878;DHT22;65843;50.692;12.844;2023-05-07T06:09:06;22.20;47.20
76878;DHT22;65843;50.692;12.844;2023-05-07T06:10:07;22.20;47.10
76878;DHT22;65843;50.692;12.844;2023-05-07T06:11:08;22.30;47.10
76878;DHT22;65843;50.692;12.844;2023-05-07T06:12:09;22.20;47.00
76878;DHT22;65843;50.692;12.844;2023-05-07T06:13:10;22.20;47.00
76878;DHT22;65843;50.692;12.844;2023-05-07T06:14:11;22.20;47.10
76878;DHT22;65843;50.692;12.844;2023-05-07T06:15:12;22.20;47.00
76878;DHT22;65843;50.692;12.844;2023-05-07T06:16:13;22.20;47.00
76878;DHT22;65843;50.692;12.844;2023-05-07T06:17:14;22.20;47.00
76878;DHT22;65843;50.692;12.844;2023-05-07T06:18:15;22.20;47.00
76878;DHT22;65843;50.692;12.844;2023-05-07T06:19:16;22.20;47.00
76878;DHT22;65843;50.692;12.844;2023-05-07T06:20:18;22.20;47.00